Birch Creek GC
600 E Center St, Smithfield
Last Weather Update:08/31/2011 10:00:00 PM
Date
ETo
ETc
Rain
Irrigation
Req
Temp
Max
Temp
Min
Temp
Avg
Avg RH
Avg Wind
Avg Solar
inches
inches
incehs
inches
F
F
F
%
%
watts/m2
07/01/2011 0.26" 0.21" 0.00" 0.21" 81.7° 53.4° 67.0° 63.1% 3.4 MPH 366.1w/m2
07/02/2011 0.27" 0.21" 0.00" 0.21" 91.5° 51.9° 71.0° 47.3% 3.3 MPH 364.0w/m2
07/03/2011 0.30" 0.25" 0.00" 0.25" 94.3° 58.0° 76.5° 44.5% 4.1 MPH 369.0w/m2
07/04/2011 0.17" 0.14" 0.00" 0.14" 85.8° 64.7° 73.3° 51.5% 3.7 MPH 200.8w/m2
07/05/2011 0.17" 0.14" 0.00" 0.14" 81.7° 63.7° 71.5° 52.4% 3.6 MPH 208.0w/m2
07/06/2011 0.25" 0.21" 0.00" 0.21" 88.0° 57.0° 72.3° 47.0% 3.2 MPH 339.8w/m2
07/07/2011 0.11" 0.09" 0.06" 0.04" 76.9° 59.7° 67.8° 71.4% 3.4 MPH 139.6w/m2
07/08/2011 0.21" 0.17" 0.02" 0.16" 83.2° 57.0° 67.5° 74.0% 3.9 MPH 288.6w/m2
07/09/2011 0.23" 0.19" 0.24" 0.00" 86.1° 53.2° 66.3° 74.4% 3.7 MPH 324.1w/m2
07/10/2011 0.25" 0.21" 0.00" 0.21" 85.9° 54.9° 68.6° 76.8% 4.1 MPH 329.8w/m2
07/11/2011 0.26" 0.22" 0.00" 0.22" 85.8° 56.1° 71.5° 52.8% 3.8 MPH 347.2w/m2
07/12/2011 0.18" 0.15" 0.01" 0.14" 82.8° 62.3° 71.1° 69.9% 3.8 MPH 228.9w/m2
07/13/2011 0.28" 0.23" 0.00" 0.23" 84.6° 62.0° 74.2° 41.3% 5.9 MPH 312.2w/m2
07/14/2011 0.32" 0.27" 0.00" 0.27" 83.0° 58.0° 72.1° 64.5% 7.0 MPH 362.1w/m2
07/15/2011 0.27" 0.23" 0.00" 0.23" 85.3° 51.9° 69.1° 49.9% 4.0 MPH 359.9w/m2
07/16/2011 0.29" 0.25" 0.00" 0.25" 87.3° 54.0° 71.6° 39.2% 4.3 MPH 363.0w/m2
07/17/2011 0.27" 0.23" 0.00" 0.23" 92.5° 53.7° 74.5° 48.3% 3.3 MPH 343.2w/m2
07/18/2011 0.20" 0.17" 0.00" 0.17" 88.0° 68.3° 77.5° 46.6% 4.5 MPH 186.6w/m2
07/19/2011 0.28" 0.25" 0.00" 0.25" 89.3° 63.4° 76.1° 50.1% 5.7 MPH 300.4w/m2
07/20/2011 0.26" 0.22" 0.00" 0.22" 84.6° 53.1° 68.6° 47.2% 3.4 MPH 354.2w/m2
07/21/2011 0.27" 0.23" 0.00" 0.23" 86.4° 51.9° 70.1° 48.8% 3.8 MPH 349.8w/m2
07/22/2011 0.27" 0.24" 0.00" 0.24" 87.7° 53.1° 71.0° 53.2% 4.2 MPH 348.7w/m2
07/23/2011 0.25" 0.22" 0.00" 0.22" 87.2° 55.3° 70.6° 54.6% 3.2 MPH 349.6w/m2
07/24/2011 0.27" 0.24" 0.00" 0.24" 94.9° 55.0° 74.2° 42.1% 3.4 MPH 349.3w/m2
07/25/2011 0.26" 0.23" 0.00" 0.23" 90.6° 59.0° 74.6° 46.1% 5.6 MPH 266.3w/m2
07/26/2011 0.28" 0.25" 0.00" 0.25" 88.7° 62.8° 75.5° 54.2% 4.5 MPH 346.2w/m2
07/27/2011 0.24" 0.22" 0.00" 0.22" 86.1° 60.5° 71.9° 55.1% 3.5 MPH 327.9w/m2
07/28/2011 0.25" 0.22" 0.00" 0.22" 89.2° 56.5° 72.3° 54.1% 3.3 MPH 337.2w/m2
07/29/2011 0.26" 0.23" 0.00" 0.23" 91.8° 57.0° 74.1° 46.8% 3.3 MPH 337.3w/m2
07/30/2011 0.14" 0.13" 0.00" 0.13" 84.2° 57.3° 71.2° 55.2% 3.3 MPH 159.3w/m2
07/31/2011 0.13" 0.12" 0.25" -0.08" 84.3° 62.3° 69.7° 98.8% 3.3 MPH 160.7w/m2
Totals: 7.46" 6.35" 0.58" 5.89" 94.9° 51.9° 71.7° 55.5% 4.0 MPH 303.9w/m2